Abadi — V8V2002 — position and weather

sailwx.info

Track history (hours):
 
Tides and Currents Weather Stations Pressure Air Temp Water Temp Dewpoint Dewpoint Depression Visibility Wind Speed Wind Dir Waves Ship Positions

Abadi

Last reported at 2017-May-17 02:14 UTC. Time now 2017-May-30 01:30 UTC.
Position N 22°13' E 119°55'.
Warning: this ship's position is 12 days out of date.

Type: Ship (hazmat cat A). MMSI: 508011000.

Date/timePositionNaut miles runAvg speedWind from/ knotsBaromVisibWave heightAir tempDewpointWater temp
2017-May-17 02:14N 22°13' E 119°55'314.0
2017-May-17 02:00N 22°16' E 119°57'815.3
2017-May-17 01:30N 22°24' E 119°58'917.7
2017-May-17 01:00N 22°33' E 119°58'917.7
2017-May-17 00:30N 22°41' E 119°59'815.0
2017-May-16 23:59N 22°48' E 120°03'4 0.2
2017-May-15 23:18N 22°49' E 120°08'3 7.8
2017-May-15 22:58N 22°49' E 120°05'4 9.3
2017-May-15 22:30N 22°47' E 120°01'611.2
2017-May-15 21:59N 22°41' E 120°00'612.0
2017-May-15 21:30N 22°35' E 119°59'612.5
2017-May-15 21:00N 22°29' E 119°58'612.3
2017-May-15 20:30N 22°23' E 119°56'813.2
2017-May-15 19:53N 22°15' E 119°56'  
Track history (hours):
 
Tides and Currents Weather Stations Pressure Air Temp Water Temp Dewpoint Dewpoint Depression Visibility Wind Speed Wind Dir Waves Ship Positions

Abadi

Last reported at 2017-May-17 02:14 UTC. Time now 2017-May-30 01:30 UTC.
Position N 22°13' E 119°55'.
Warning: this ship's position is 12 days out of date.

Type: Ship (hazmat cat A). MMSI: 508011000.

Date/timePositionNaut miles runAvg speedWind from/ knotsBaromVisibWave heightAir tempDewpointWater temp
2017-May-17 02:14N 22°13' E 119°55'314.0
2017-May-17 02:00N 22°16' E 119°57'815.3
2017-May-17 01:30N 22°24' E 119°58'917.7
2017-May-17 01:00N 22°33' E 119°58'917.7
2017-May-17 00:30N 22°41' E 119°59'815.0
2017-May-16 23:59N 22°48' E 120°03'4 0.2
2017-May-15 23:18N 22°49' E 120°08'3 7.8
2017-May-15 22:58N 22°49' E 120°05'4 9.3
2017-May-15 22:30N 22°47' E 120°01'611.2
2017-May-15 21:59N 22°41' E 120°00'612.0
2017-May-15 21:30N 22°35' E 119°59'612.5
2017-May-15 21:00N 22°29' E 119°58'612.3
2017-May-15 20:30N 22°23' E 119°56'813.2
2017-May-15 19:53N 22°15' E 119°56'  

Dump ship's entire track history